Garrison, Montana
Current Conditions -  °F | °C
As of 11:56 AM on Wednesday 26 Nov 2014 (Local Time) from KHLN Reporting Station
Light Snow Light Snow  
Wind Chill: 33°   Ceiling: 3800
Heat Index: 33°   Visibility: 3mi
Dew Point: 31°   Wind: 0mph
Humidity: 92%   Direction: NA
Pressure: 30.12"   Gusts: NA
Location:  46.52°N, 112.8°W
Report Text: KHLN 261856Z 00000KT 3SM -SN BR SCT003 BKN038 OVC047 01/M01 A3012 RMK AO2 P0000 T00061006
Loading
Personal Weather Stations






























Interactive Weather Map New forecast layout! Learn more

10-Day Weather Forecast

Advertisements
Track Severe Weather on mobile